createdAt,value
2022-08-21T00:00:28.306Z,8.52
2022-08-21T00:02:57.917Z,8.13
2022-08-21T00:05:26.084Z,7.20
2022-08-21T00:07:54.880Z,6.80
2022-08-21T00:10:21.971Z,7.93
2022-08-21T00:12:49.341Z,7.70
2022-08-21T00:15:19.374Z,7.10
2022-08-21T00:17:47.253Z,7.95
2022-08-21T00:20:16.235Z,6.32
2022-08-21T00:22:43.500Z,6.50
2022-08-21T00:25:12.515Z,11.30
2022-08-21T00:27:39.725Z,7.28
2022-08-21T00:30:08.206Z,7.18
2022-08-21T00:32:38.631Z,6.15
2022-08-21T00:37:35.373Z,7.07
2022-08-21T00:40:02.465Z,8.43
2022-08-21T00:42:30.945Z,6.53
2022-08-21T00:44:57.592Z,9.10
2022-08-21T00:47:24.184Z,8.45
2022-08-21T00:49:50.894Z,7.32
2022-08-21T00:52:22.829Z,6.82
2022-08-21T00:54:50.806Z,7.20
2022-08-21T00:57:24.208Z,7.10
2022-08-21T00:59:56.951Z,7.30
2022-08-21T01:02:23.628Z,6.50
2022-08-21T01:04:50.308Z,9.98
2022-08-21T01:07:17.811Z,5.95
2022-08-21T01:09:47.797Z,8.93
2022-08-21T01:12:15.737Z,8.57
2022-08-21T01:14:43.304Z,7.80
2022-08-21T01:17:12.430Z,7.60
2022-08-21T01:19:39.534Z,7.45
2022-08-21T01:22:07.841Z,11.60
2022-08-21T01:24:34.686Z,9.65
2022-08-21T01:27:01.781Z,8.82
2022-08-21T01:29:36.794Z,8.65
2022-08-21T01:32:08.303Z,6.97
2022-08-21T01:34:37.327Z,7.85
2022-08-21T01:37:03.963Z,7.78
2022-08-21T01:39:32.484Z,8.07
2022-08-21T01:41:59.130Z,7.45
2022-08-21T01:44:26.810Z,11.20
2022-08-21T01:46:53.590Z,7.68
2022-08-21T01:49:21.026Z,8.35
2022-08-21T01:51:47.932Z,9.40
2022-08-21T01:54:14.726Z,8.85
2022-08-21T01:56:46.842Z,10.32
2022-08-21T01:59:13.513Z,8.07
2022-08-21T02:01:40.081Z,9.88
2022-08-21T02:04:07.393Z,7.03
2022-08-21T02:06:34.509Z,8.25
2022-08-21T02:09:01.372Z,7.18
2022-08-21T02:11:27.930Z,6.72
2022-08-21T02:13:55.913Z,7.00
2022-08-21T02:16:22.563Z,8.98
2022-08-21T02:18:49.202Z,10.93
2022-08-21T02:21:15.778Z,8.60
2022-08-21T02:23:42.410Z,7.25
2022-08-21T02:26:09.861Z,8.50
2022-08-21T02:28:37.418Z,10.02
2022-08-21T02:31:06.509Z,8.27
2022-08-21T02:33:33.203Z,9.43
2022-08-21T02:35:59.853Z,8.65
2022-08-21T02:38:28.819Z,10.55
2022-08-21T02:40:56.241Z,9.55
2022-08-21T02:43:25.386Z,8.35
2022-08-21T02:45:52.906Z,7.40
2022-08-21T02:48:23.604Z,9.82
2022-08-21T02:50:55.220Z,9.73
2022-08-21T02:53:21.948Z,7.22
2022-08-21T02:55:51.061Z,6.72
2022-08-21T02:58:25.710Z,8.50
2022-08-21T03:00:52.810Z,12.23
2022-08-21T03:03:20.985Z,12.88
2022-08-21T03:05:48.593Z,7.28
2022-08-21T03:08:16.127Z,9.20
2022-08-21T03:10:45.934Z,10.45
2022-08-21T03:13:13.325Z,7.72
2022-08-21T03:15:40.276Z,9.50
2022-08-21T03:18:07.416Z,10.50
2022-08-21T03:20:37.249Z,9.73
2022-08-21T03:23:06.172Z,10.18
2022-08-21T03:25:42.068Z,8.45
2022-08-21T03:28:13.135Z,8.80
2022-08-21T03:30:40.284Z,6.55
2022-08-21T03:33:06.835Z,6.85
2022-08-21T03:35:34.830Z,9.05
2022-08-21T03:38:01.409Z,8.20
2022-08-21T03:40:28.491Z,11.40
2022-08-21T03:42:55.087Z,8.52
2022-08-21T03:45:22.002Z,9.07
2022-08-21T03:47:53.674Z,8.18
2022-08-21T03:52:48.219Z,9.60
2022-08-21T03:55:14.906Z,9.80
2022-08-21T03:57:41.515Z,7.53
2022-08-21T04:00:09.982Z,11.13
2022-08-21T04:02:36.579Z,8.43
2022-08-21T04:05:04.031Z,8.15
2022-08-21T04:07:30.565Z,8.43
2022-08-21T04:09:58.606Z,9.10
2022-08-21T04:12:25.179Z,7.75
2022-08-21T04:14:52.055Z,7.55
2022-08-21T04:17:18.814Z,7.35
2022-08-21T04:19:46.989Z,7.90
2022-08-21T04:22:16.365Z,8.32
2022-08-21T04:24:43.072Z,6.80
2022-08-21T04:27:11.059Z,7.10
2022-08-21T04:29:40.064Z,8.70
2022-08-21T04:32:07.143Z,7.13
2022-08-21T04:34:33.885Z,6.75
2022-08-21T04:37:00.557Z,6.75
2022-08-21T04:39:29.668Z,8.07
2022-08-21T04:41:56.695Z,9.88
2022-08-21T04:44:24.590Z,7.63
2022-08-21T04:46:51.223Z,6.72
2022-08-21T04:49:17.805Z,7.45
2022-08-21T04:51:45.709Z,9.68
2022-08-21T04:54:17.886Z,9.05
2022-08-21T04:56:47.917Z,8.32
2022-08-21T04:59:18.442Z,9.70
2022-08-21T05:01:46.804Z,8.65
2022-08-21T05:04:17.319Z,7.53
2022-08-21T05:06:47.375Z,7.07
2022-08-21T05:09:17.279Z,7.32
2022-08-21T05:11:44.572Z,8.88
2022-08-21T05:14:11.628Z,9.05
2022-08-21T05:16:38.541Z,8.25
2022-08-21T05:19:07.557Z,7.72
2022-08-21T05:21:34.515Z,9.18
2022-08-21T05:24:01.120Z,8.88
2022-08-21T05:26:28.309Z,10.75
2022-08-21T05:28:54.878Z,8.95
2022-08-21T05:31:22.824Z,9.60
2022-08-21T05:33:49.384Z,9.88
2022-08-21T05:36:20.026Z,8.13
2022-08-21T05:38:46.945Z,11.23
2022-08-21T05:41:13.699Z,10.00
2022-08-21T05:43:40.339Z,11.10
2022-08-21T05:46:08.194Z,9.38
2022-08-21T05:48:36.076Z,9.07
2022-08-21T05:51:06.426Z,10.05
2022-08-21T05:53:34.395Z,8.68
2022-08-21T05:56:00.961Z,9.85
2022-08-21T05:58:27.531Z,9.68
2022-08-21T06:00:54.089Z,12.60
2022-08-21T06:03:24.562Z,9.27
2022-08-21T06:05:51.571Z,10.45
2022-08-21T06:08:19.009Z,9.15
2022-08-21T06:10:48.992Z,10.40
2022-08-21T06:13:17.728Z,10.27
2022-08-21T06:15:44.421Z,9.13
2022-08-21T06:18:11.859Z,9.82
2022-08-21T06:20:38.938Z,9.63
2022-08-21T06:23:05.927Z,9.50
2022-08-21T06:25:33.293Z,11.10
2022-08-21T06:28:06.255Z,10.70
2022-08-21T06:30:33.231Z,11.05
2022-08-21T06:33:00.470Z,10.73
2022-08-21T06:35:27.680Z,9.25
2022-08-21T06:37:54.183Z,11.60
2022-08-21T06:40:20.818Z,13.93
2022-08-21T06:42:48.249Z,8.75
2022-08-21T06:45:17.086Z,11.32
2022-08-21T06:47:43.621Z,9.10
2022-08-21T06:50:10.321Z,9.02
2022-08-21T06:52:37.608Z,9.55
2022-08-21T06:55:06.724Z,10.00
2022-08-21T06:57:33.943Z,11.98
2022-08-21T07:00:00.572Z,12.02
2022-08-21T07:02:28.455Z,10.93
2022-08-21T07:04:55.116Z,12.65
2022-08-21T07:07:21.669Z,10.55
2022-08-21T07:09:48.453Z,11.02
2022-08-21T07:12:15.013Z,11.20
2022-08-21T07:14:41.653Z,10.60
2022-08-21T07:17:08.191Z,9.80
2022-08-21T07:19:36.430Z,9.30
2022-08-21T07:22:03.496Z,9.63
2022-08-21T07:24:30.519Z,10.70
2022-08-21T07:26:57.097Z,13.00
2022-08-21T07:29:23.727Z,12.40
2022-08-21T07:31:50.317Z,8.82
2022-08-21T07:34:17.483Z,11.75
2022-08-21T07:36:45.369Z,9.15
2022-08-21T07:39:12.687Z,11.07
2022-08-21T07:41:39.422Z,12.93
2022-08-21T07:44:06.568Z,10.60
2022-08-21T07:46:33.303Z,11.32
2022-08-21T07:49:00.030Z,11.90
2022-08-21T07:51:28.950Z,16.52
2022-08-21T07:53:58.815Z,17.65
2022-08-21T07:56:25.736Z,16.98
2022-08-21T07:58:52.529Z,14.82
2022-08-21T08:01:19.590Z,13.98
2022-08-21T08:03:46.769Z,15.07
2022-08-21T08:06:13.866Z,12.32
2022-08-21T08:08:41.667Z,11.68
2022-08-21T08:11:10.483Z,11.68
2022-08-21T08:13:40.033Z,12.38
2022-08-21T08:16:07.197Z,13.07
2022-08-21T08:18:33.834Z,13.18
2022-08-21T08:21:00.418Z,10.10
2022-08-21T08:23:26.963Z,10.10
2022-08-21T08:25:53.591Z,12.65
2022-08-21T08:28:21.564Z,11.75
2022-08-21T08:30:48.109Z,9.70
2022-08-21T08:33:15.831Z,13.60
2022-08-21T08:35:43.322Z,15.27
2022-08-21T08:38:09.914Z,11.73
2022-08-21T08:40:43.137Z,14.27
2022-08-21T08:43:10.120Z,11.43
2022-08-21T08:45:46.514Z,12.57
2022-08-21T08:48:20.745Z,11.07
2022-08-21T08:50:50.313Z,10.95
2022-08-21T08:53:20.683Z,12.18
2022-08-21T08:55:49.053Z,10.32
2022-08-21T08:58:21.202Z,11.13
2022-08-21T09:00:51.612Z,15.18
2022-08-21T09:03:18.913Z,13.05
2022-08-21T09:05:48.244Z,9.50
2022-08-21T09:08:24.158Z,9.23
2022-08-21T09:11:01.433Z,10.27
2022-08-21T09:13:40.280Z,12.60
2022-08-21T09:16:16.415Z,9.57
2022-08-21T09:18:55.347Z,8.90
2022-08-21T09:21:29.158Z,11.57
2022-08-21T09:24:01.093Z,7.40
2022-08-21T09:26:32.650Z,15.35
2022-08-21T09:29:00.537Z,14.02
2022-08-21T09:31:31.207Z,10.52
2022-08-21T09:33:59.573Z,15.25
2022-08-21T09:36:34.071Z,9.10
2022-08-21T09:39:00.750Z,6.60
2022-08-21T09:41:29.651Z,7.40
2022-08-21T09:43:56.410Z,7.45
2022-08-21T09:46:25.257Z,6.53
2022-08-21T09:48:54.874Z,7.50
2022-08-21T09:51:24.522Z,6.50
2022-08-21T09:53:54.914Z,7.65
2022-08-21T09:56:28.191Z,7.80
2022-08-21T09:58:54.882Z,11.27
2022-08-21T10:01:24.010Z,9.52
2022-08-21T10:04:04.992Z,6.85
2022-08-21T10:06:31.634Z,9.73
2022-08-21T10:09:06.413Z,6.95
2022-08-21T10:11:34.712Z,6.00
2022-08-21T10:14:14.208Z,5.55
2022-08-21T10:16:52.296Z,10.98
2022-08-21T10:19:30.014Z,8.57
2022-08-21T10:22:03.708Z,10.90
2022-08-21T10:24:34.019Z,10.57
2022-08-21T10:27:12.182Z,6.60
2022-08-21T10:29:48.449Z,7.05
2022-08-21T10:32:30.452Z,10.85
2022-08-21T10:35:07.502Z,8.27
2022-08-21T10:37:46.920Z,5.95
2022-08-21T10:40:21.977Z,5.95
2022-08-21T10:43:02.147Z,7.82
2022-08-21T10:45:42.981Z,6.82
2022-08-21T10:48:16.812Z,5.22
2022-08-21T10:50:51.529Z,7.32
2022-08-21T10:53:37.432Z,5.25
2022-08-21T10:56:15.921Z,5.50
2022-08-21T10:58:50.662Z,10.15
2022-08-21T11:01:23.831Z,8.90
2022-08-21T11:04:06.910Z,6.70
2022-08-21T11:06:40.192Z,5.10
2022-08-21T11:09:14.714Z,7.75
2022-08-21T11:11:59.024Z,6.38
2022-08-21T11:14:40.363Z,3.40
2022-08-21T11:17:22.337Z,6.57
2022-08-21T11:19:54.469Z,4.93
2022-08-21T11:22:27.413Z,4.03
2022-08-21T11:25:01.428Z,6.25
2022-08-21T11:27:33.985Z,3.72
2022-08-21T11:30:02.171Z,5.15
2022-08-21T11:32:53.825Z,8.23
2022-08-21T11:35:32.541Z,5.82
2022-08-21T11:38:16.508Z,4.07
2022-08-21T11:40:53.310Z,5.97
2022-08-21T11:43:28.647Z,5.78
2022-08-21T11:45:58.761Z,8.55
2022-08-21T11:48:38.009Z,5.53
2022-08-21T11:51:10.534Z,5.88
2022-08-21T11:53:50.914Z,5.15
2022-08-21T11:56:26.128Z,6.82
2022-08-21T11:58:57.878Z,7.18
2022-08-21T12:01:31.551Z,5.72
2022-08-21T12:04:02.941Z,4.93
2022-08-21T12:06:31.902Z,4.97
2022-08-21T12:09:02.080Z,7.35
2022-08-21T12:11:30.915Z,7.72
2022-08-21T12:14:01.172Z,9.40
2022-08-21T12:16:32.987Z,3.40
2022-08-21T12:19:08.243Z,7.55
2022-08-21T12:21:50.081Z,4.55
2022-08-21T12:24:32.789Z,6.05
2022-08-21T12:27:02.684Z,5.18
2022-08-21T12:29:31.466Z,4.72
2022-08-21T12:32:00.622Z,3.25
2022-08-21T12:34:37.321Z,16.13
2022-08-21T12:37:15.581Z,5.43
2022-08-21T12:39:47.442Z,5.68
2022-08-21T12:42:19.206Z,6.03
2022-08-21T12:44:51.234Z,4.63
2022-08-21T12:47:27.721Z,4.43
2022-08-21T12:50:02.367Z,4.28
2022-08-21T12:52:38.969Z,3.35
2022-08-21T12:55:11.920Z,3.63
2022-08-21T12:57:41.904Z,5.47
2022-08-21T13:00:12.411Z,4.33
2022-08-21T13:02:44.267Z,5.57
2022-08-21T13:05:14.602Z,3.95
2022-08-21T13:07:46.151Z,3.35
2022-08-21T13:10:21.082Z,3.70
2022-08-21T13:12:48.334Z,4.18
2022-08-21T13:15:15.164Z,4.68
2022-08-21T13:17:48.270Z,4.05
2022-08-21T13:20:22.195Z,3.05
2022-08-21T13:22:48.958Z,3.85
2022-08-21T13:25:18.338Z,4.22
2022-08-21T13:27:58.922Z,3.00
2022-08-21T13:30:25.791Z,2.95
2022-08-21T13:32:56.616Z,4.28
2022-08-21T13:35:26.746Z,3.53
2022-08-21T13:37:55.422Z,4.35
2022-08-21T13:40:27.322Z,4.53
2022-08-21T13:42:54.798Z,4.03
2022-08-21T13:45:26.470Z,4.82
2022-08-21T13:47:54.699Z,2.92
2022-08-21T13:50:24.348Z,3.92
2022-08-21T13:52:58.500Z,3.17
2022-08-21T13:55:35.812Z,4.38
2022-08-21T13:58:04.130Z,3.20
2022-08-21T14:00:32.371Z,5.05
2022-08-21T14:03:05.281Z,5.65
2022-08-21T14:05:34.135Z,5.38
2022-08-21T14:08:05.837Z,4.28
2022-08-21T14:10:37.440Z,5.72
2022-08-21T14:13:06.795Z,3.22
2022-08-21T14:15:35.859Z,3.50
2022-08-21T14:18:13.924Z,2.83
2022-08-21T14:20:41.179Z,5.50
2022-08-21T14:23:07.753Z,6.43
2022-08-21T14:25:43.795Z,5.30
2022-08-21T14:28:27.220Z,4.38
2022-08-21T14:30:57.531Z,5.32
2022-08-21T14:33:27.615Z,3.78
2022-08-21T14:35:54.910Z,4.57
2022-08-21T14:38:23.868Z,5.57
2022-08-21T14:40:54.095Z,3.72
2022-08-21T14:43:21.397Z,4.85
2022-08-21T14:45:48.791Z,3.70
2022-08-21T14:48:15.444Z,2.88
2022-08-21T14:50:42.267Z,5.93
2022-08-21T14:53:10.984Z,4.63
2022-08-21T14:55:39.416Z,3.80
2022-08-21T14:58:08.856Z,5.07
2022-08-21T15:00:35.845Z,4.22
2022-08-21T15:03:03.136Z,4.57
2022-08-21T15:05:33.831Z,3.95
2022-08-21T15:08:01.024Z,3.35
2022-08-21T15:10:27.845Z,3.80
2022-08-21T15:12:54.594Z,4.53
2022-08-21T15:15:22.751Z,3.85
2022-08-21T15:17:49.343Z,3.92
2022-08-21T15:20:16.176Z,7.20
2022-08-21T15:22:47.425Z,3.55
2022-08-21T15:25:14.575Z,3.67
2022-08-21T15:27:41.323Z,4.38
2022-08-21T15:30:08.656Z,3.28
2022-08-21T15:32:36.572Z,3.33
2022-08-21T15:35:04.052Z,4.30
2022-08-21T15:37:30.710Z,7.88
2022-08-21T15:39:57.511Z,2.97
2022-08-21T15:42:26.040Z,6.20
2022-08-21T15:44:53.703Z,3.80
2022-08-21T15:47:23.562Z,3.63
2022-08-21T15:49:51.578Z,5.03
2022-08-21T15:52:20.691Z,3.30
2022-08-21T15:54:47.743Z,4.95
2022-08-21T15:57:18.764Z,3.40
2022-08-21T15:59:49.381Z,6.03
2022-08-21T16:02:19.709Z,5.47
2022-08-21T16:04:46.282Z,3.90
2022-08-21T16:07:14.757Z,5.00
2022-08-21T16:09:41.354Z,3.55
2022-08-21T16:12:10.509Z,3.38
2022-08-21T16:14:37.777Z,3.70
2022-08-21T16:17:05.991Z,5.35
2022-08-21T16:19:33.523Z,5.55
2022-08-21T16:22:00.222Z,4.68
2022-08-21T16:24:28.236Z,4.85
2022-08-21T16:26:57.922Z,4.05
2022-08-21T16:29:29.413Z,5.03
2022-08-21T16:31:56.179Z,6.70
2022-08-21T16:34:22.720Z,5.10
2022-08-21T16:36:49.403Z,4.03
2022-08-21T16:39:15.987Z,5.18
2022-08-21T16:41:43.995Z,6.85
2022-08-21T16:44:11.178Z,3.15
2022-08-21T16:46:40.517Z,7.10
2022-08-21T16:49:07.538Z,5.30
2022-08-21T16:51:34.324Z,3.85
2022-08-21T16:54:01.014Z,4.85
2022-08-21T16:56:27.900Z,3.60
2022-08-21T16:58:58.119Z,4.57
2022-08-21T17:01:28.101Z,3.83
2022-08-21T17:03:54.745Z,5.73
2022-08-21T17:06:23.341Z,4.80
2022-08-21T17:08:55.673Z,5.75
2022-08-21T17:11:36.657Z,2.03
2022-08-21T17:14:07.940Z,3.20
2022-08-21T17:16:35.147Z,3.38
2022-08-21T17:19:01.723Z,5.35
2022-08-21T17:21:28.277Z,4.82
2022-08-21T17:23:54.848Z,4.93
2022-08-21T17:26:21.402Z,4.70
2022-08-21T17:28:50.907Z,5.55
2022-08-21T17:31:21.097Z,5.30
2022-08-21T17:33:51.142Z,4.55
2022-08-21T17:36:18.366Z,6.40
2022-08-21T17:38:45.022Z,4.43
2022-08-21T17:41:12.317Z,4.35
2022-08-21T17:43:39.729Z,5.07
2022-08-21T17:46:07.239Z,3.15
2022-08-21T17:48:35.274Z,5.28
2022-08-21T17:51:03.581Z,4.82
2022-08-21T17:53:30.179Z,5.13
2022-08-21T17:55:56.975Z,4.25
2022-08-21T17:58:23.712Z,5.65
2022-08-21T18:00:50.391Z,5.75
2022-08-21T18:03:21.457Z,3.25
2022-08-21T18:05:51.050Z,4.45
2022-08-21T18:08:18.078Z,4.35
2022-08-21T18:10:48.136Z,7.70
2022-08-21T18:13:20.893Z,4.50
2022-08-21T18:15:51.100Z,4.00
2022-08-21T18:18:17.993Z,4.03
2022-08-21T18:20:44.689Z,5.15
2022-08-21T18:23:12.821Z,5.07
2022-08-21T18:25:39.957Z,4.15
2022-08-21T18:28:08.009Z,3.67
2022-08-21T18:30:39.387Z,5.03
2022-08-21T18:33:08.477Z,6.68
2022-08-21T18:35:35.470Z,4.93
2022-08-21T18:38:02.111Z,3.50
2022-08-21T18:40:31.305Z,3.15
2022-08-21T18:43:01.059Z,3.05
2022-08-21T18:45:28.436Z,4.40
2022-08-21T18:47:57.532Z,3.47
2022-08-21T18:50:26.560Z,5.38
2022-08-21T18:52:53.771Z,4.63
2022-08-21T18:55:42.920Z,5.57
2022-08-21T18:58:10.034Z,4.07
2022-08-21T19:00:44.295Z,4.45
2022-08-21T19:03:12.053Z,4.57
2022-08-21T19:05:38.769Z,4.07
2022-08-21T19:08:06.350Z,3.25
2022-08-21T19:10:32.967Z,4.68
2022-08-21T19:13:01.368Z,4.28
2022-08-21T19:18:18.067Z,4.13
2022-08-21T19:20:47.409Z,4.40
2022-08-21T19:23:16.244Z,4.32
2022-08-21T19:25:45.559Z,5.10
2022-08-21T19:28:25.759Z,4.07
2022-08-21T19:30:57.168Z,4.70
2022-08-21T19:33:28.675Z,3.25
2022-08-21T19:35:55.633Z,5.70
2022-08-21T19:38:22.694Z,4.65
2022-08-21T19:40:49.809Z,4.88
2022-08-21T19:43:16.549Z,4.57
2022-08-21T19:45:53.481Z,4.45
2022-08-21T19:48:20.386Z,6.35
2022-08-21T19:50:46.930Z,4.18
2022-08-21T19:53:13.685Z,5.75
2022-08-21T19:55:42.792Z,4.05
2022-08-21T20:01:16.393Z,6.45
2022-08-21T20:03:44.914Z,4.00
2022-08-21T20:06:20.857Z,11.77
2022-08-21T20:08:47.751Z,5.07
2022-08-21T20:11:19.518Z,5.28
2022-08-21T20:13:46.204Z,4.85
2022-08-21T20:16:14.412Z,4.05
2022-08-21T20:18:41.545Z,3.97
2022-08-21T20:21:08.694Z,5.53
2022-08-21T20:23:35.605Z,4.55
2022-08-21T20:26:10.591Z,4.13
2022-08-21T20:28:37.628Z,5.68
2022-08-21T20:31:06.668Z,5.80
2022-08-21T20:33:37.929Z,5.47
2022-08-21T20:36:05.051Z,4.78
2022-08-21T20:38:31.632Z,5.13
2022-08-21T20:40:58.416Z,3.97
2022-08-21T20:43:26.622Z,3.72
2022-08-21T20:45:55.046Z,4.80
2022-08-21T20:48:25.295Z,5.85
2022-08-21T20:51:00.575Z,3.10
2022-08-21T20:56:36.085Z,5.13
2022-08-21T20:59:10.907Z,6.68
2022-08-21T21:01:38.432Z,3.33
2022-08-21T21:04:18.683Z,6.53
2022-08-21T21:06:49.933Z,5.13
2022-08-21T21:09:40.377Z,4.07
2022-08-21T21:12:14.825Z,5.05
2022-08-21T21:14:45.349Z,5.13
2022-08-21T21:17:19.036Z,3.83
2022-08-21T21:20:01.491Z,3.92
2022-08-21T21:22:35.173Z,7.85
2022-08-21T21:25:07.901Z,5.13
2022-08-21T21:27:38.152Z,3.53
2022-08-21T21:30:12.038Z,4.40
2022-08-21T21:32:38.866Z,3.80
2022-08-21T21:35:07.625Z,4.45
2022-08-21T21:37:42.130Z,5.40
2022-08-21T21:40:25.373Z,4.63
2022-08-21T21:43:02.822Z,4.72
2022-08-21T21:45:37.071Z,5.10
2022-08-21T21:48:15.757Z,3.20
2022-08-21T21:50:54.683Z,5.15
2022-08-21T21:53:51.660Z,3.00
2022-08-21T21:56:29.256Z,5.60
2022-08-21T21:59:24.383Z,4.05
2022-08-21T22:02:06.245Z,5.97
2022-08-21T22:04:43.176Z,6.38
2022-08-21T22:07:28.272Z,4.22
2022-08-21T22:10:19.688Z,6.75
2022-08-21T22:13:09.908Z,5.75
2022-08-21T22:15:37.917Z,6.18
2022-08-21T22:18:08.576Z,7.28
2022-08-21T22:23:10.308Z,3.97
2022-08-21T22:25:42.686Z,4.95
2022-08-21T22:28:12.046Z,4.75
2022-08-21T22:30:45.213Z,3.30
2022-08-21T22:33:15.991Z,5.20
2022-08-21T22:35:51.727Z,4.03
2022-08-21T22:38:21.740Z,4.22
2022-08-21T22:40:50.545Z,6.50
2022-08-21T22:43:20.590Z,4.72
2022-08-21T22:45:56.649Z,4.40
2022-08-21T22:48:25.205Z,6.00
2022-08-21T22:50:56.652Z,3.70
2022-08-21T22:55:56.821Z,3.72
2022-08-21T22:58:27.386Z,3.33
2022-08-21T23:00:56.992Z,3.70
2022-08-21T23:03:30.398Z,3.00
2022-08-21T23:05:58.781Z,3.67
2022-08-21T23:08:30.224Z,4.30
2022-08-21T23:11:02.330Z,4.85
2022-08-21T23:13:40.453Z,5.93
2022-08-21T23:16:16.288Z,4.78
2022-08-21T23:18:56.984Z,9.25
2022-08-21T23:21:37.108Z,4.82
2022-08-21T23:24:25.864Z,3.80
2022-08-21T23:30:03.056Z,4.15
2022-08-21T23:32:53.867Z,3.00
2022-08-21T23:35:23.944Z,4.07
2022-08-21T23:37:58.139Z,3.10
2022-08-21T23:40:38.029Z,5.75
2022-08-21T23:43:27.633Z,3.88
2022-08-21T23:46:14.300Z,3.65
2022-08-21T23:48:52.669Z,4.38
2022-08-21T23:51:28.935Z,3.60
2022-08-21T23:54:09.954Z,3.47
2022-08-21T23:56:52.392Z,4.53
2022-08-21T23:59:29.743Z,6.70
